NetherlandsFixed distance
Kennedymars - prestatie
10 Apr1993
Distance
80km
Finishers
3232 men0 women
Winning time
9:11:37h
Median pace
7.59km/h
Pace distribution
32 finishers · 6.88–8.70 km/h · mean 7.73
Every finisher ran the same 80 km course, so these paces are directly comparable.
Histogram of finisher pace. 32 finishers ranged from 6.88 to 8.70 kilometres per hour, with a mean of 7.73 and a median of 7.59. The busiest band is 8.0 to 8.5 kilometres per hour, with 9 finishers.
Results
Ranks 1–32 of 32
| Rank | Runner | Time | Pace | Cat. | Placing |
|---|---|---|---|---|---|
| 1 | 9:11:37h | 8.70 | M50 | 1st M · 1st M50 | |
| 2 | 9:15:02h | 8.65 | M60 | 2nd M · 1st M60 | |
| 3 | 9:17:02h | 8.62 | — | 3rd M | |
| 4 | 9:26:13h | 8.48 | — | 4th M | |
| 5 | RWV | 9:29:53h | 8.42 | M35 | 5th M · 1st M35 |
| 6 | 9:33:39h | 8.37 | M23 | 6th M · 1st M23 | |
| 7 | 9:35:13h | 8.35 | — | 7th M | |
| 8 | 9:38:35h | 8.30 | — | 8th M | |
| 9 | RWV | 9:39:21h | 8.29 | M45 | 9th M · 1st M45 |
| 10 | 9:40:36h | 8.27 | — | 10th M | |
| 11 | 9:52:27h | 8.10 | — | 11th M | |
| 12 | 9:53:53h | 8.08 | — | 12th M | |
| 13 | 10:02:59h | 7.96 | — | 13th M | |
| 14 | 10:09:34h | 7.87 | — | 14th M | |
| 15 | 10:14:33h | 7.81 | — | 15th M | |
| 16 | 10:23:27h | 7.70 | M35 | 16th M · 2nd M35 | |
| 17 | 10:32:26h | 7.59 | — | 17th M | |
| 18 | 10:33:24h | 7.58 | — | 18th M | |
| 19 | RWV | 10:35:59h | 7.55 | M50 | 19th M · 2nd M50 |
| 20 | 10:39:56h | 7.50 | — | 20th M | |
| 21 | 10:50:00h | 7.38 | — | 21st M | |
| 22 | RWV | 10:51:28h | 7.37 | — | 22nd M |
| 23 | Olat | 10:59:22h | 7.28 | — | 23rd M |
| 24 | 11:05:13h | 7.22 | — | 24th M | |
| 25 | 11:09:26h | 7.17 | — | 25th M | |
| 26 | 11:11:32h | 7.15 | — | 26th M | |
| 27 | 11:17:24h | 7.09 | — | 27th M | |
| 28 | DE LAT | 11:20:35h | 7.05 | — | 28th M |
| 29 | RWV | 11:34:06h | 6.92 | — | 29th M |
| 30 | RWV | 11:34:06h | 6.92 | — | 29th M |
| 31 | 11:36:51h | 6.89 | — | 31st M | |
| 32 | 11:37:26h | 6.88 | — | 32nd M |
- 11st M · 1st M50Time9:11:37hPace8.70Cat.M50
- 22nd M · 1st M60Time9:15:02hPace8.65Cat.M60
- 33rd MTime9:17:02hPace8.62
- 44th MTime9:26:13hPace8.48
- 5RWV5th M · 1st M35Time9:29:53hPace8.42Cat.M35
- 66th M · 1st M23Time9:33:39hPace8.37Cat.M23
- 77th MTime9:35:13hPace8.35
- 88th MTime9:38:35hPace8.30
- 9RWV9th M · 1st M45Time9:39:21hPace8.29Cat.M45
- 1010th MTime9:40:36hPace8.27
- 1111th MTime9:52:27hPace8.10
- 1212th MTime9:53:53hPace8.08
- 1313th MTime10:02:59hPace7.96
- 1414th MTime10:09:34hPace7.87
- 1515th MTime10:14:33hPace7.81
- 1616th M · 2nd M35Time10:23:27hPace7.70Cat.M35
- 1717th MTime10:32:26hPace7.59
- 1818th MTime10:33:24hPace7.58
- 19RWV19th M · 2nd M50Time10:35:59hPace7.55Cat.M50
- 2020th MTime10:39:56hPace7.50
- 2121st MTime10:50:00hPace7.38
- 22RWV22nd MTime10:51:28hPace7.37
- 23Olat23rd MTime10:59:22hPace7.28
- 2424th MTime11:05:13hPace7.22
- 2525th MTime11:09:26hPace7.17
- 2626th MTime11:11:32hPace7.15
- 2727th MTime11:17:24hPace7.09
- 28DE LAT28th MTime11:20:35hPace7.05
- 29RWV29th MTime11:34:06hPace6.92
- 30RWV29th MTime11:34:06hPace6.92
- 3131st MTime11:36:51hPace6.89
- 3232nd MTime11:37:26hPace6.88